Stations météo

Publicité
Bramham, Grande-Bretagne (99077): Température de l'air & dewpoint: 21.10.2020 17:00:00 - 27.10.2020 17:00:00 (GMT)Bramham, Grande-Bretagne (99077): Vitesse du vent & gusts: 21.10.2020 17:00:00 - 27.10.2020 17:00:00 (GMT)Bramham, Grande-Bretagne (99077): Direction du vent: 21.10.2020 17:00:00 - 27.10.2020 17:00:00 (GMT)Bramham, Grande-Bretagne (99077): Quantités de précipitations: 21.10.2020 17:00:00 - 27.10.2020 17:00:00 (GMT)
Date & Time tt [°C] td [°C] ff [km/h] ff [knt] fx [km/h] fx [knt] dd rr [mm]
27.10.2020 17:00:00 9,8 7,2 18 10 50 27 SW 0,2
27.10.2020 16:00:00 10,3 8,1 24 13 46 25 WSW 0,6
27.10.2020 15:00:00 10,1 9,8 22 12 - - SE 0,6
27.10.2020 14:00:00 9,3 9,1 26 14 - - SE 0,8
27.10.2020 13:00:00 8,9 8,6 22 12 - - SE 0,8
27.10.2020 12:00:00 8,5 8,3 22 12 - - SE 0,2
27.10.2020 11:00:00 8,0 7,6 21 11 - - SE 0,2
27.10.2020 10:00:00 7,4 6,9 21 11 - - SSE 0,4
27.10.2020 09:00:00 7,4 5,9 21 11 - - S 0,0
27.10.2020 08:00:00 7,3 5,6 21 11 - - S 0,0
27.10.2020 07:00:00 6,8 5,2 16 9 - - S 0,0
27.10.2020 06:00:00 6,7 5,2 11 6 - - S 0,0
27.10.2020 05:00:00 7,4 6,1 11 6 - - SW 0,0
27.10.2020 04:00:00 7,4 6,4 15 8 - - SSW 0,0
27.10.2020 03:00:00 7,6 6,3 15 8 - - SSW 0,0
27.10.2020 02:00:00 6,4 5,3 13 7 - - S 0,0
27.10.2020 01:00:00 7,7 5,6 11 6 - - SW 0,0
27.10.2020 00:00:00 8,1 5,6 13 7 - - SW 0,2
26.10.2020 23:00:00 9,0 6,3 16 9 - - WSW 0,0
26.10.2020 22:00:00 8,5 6,1 15 8 - - SW 0,0
26.10.2020 21:00:00 8,8 5,8 16 9 46 25 WSW 0,0
26.10.2020 20:00:00 9,3 6,1 29 16 50 27 WSW 0,0
26.10.2020 19:00:00 9,4 6,5 34 18 52 28 WSW 0,0
26.10.2020 18:00:00 9,4 7,2 15 8 - - WSW 0,0
26.10.2020 17:00:00 9,6 6,1 18 10 - - WSW 0,2
26.10.2020 16:00:00 10,5 7,1 18 10 - - WSW 0,0
26.10.2020 15:00:00 10,4 5,1 39 21 61 33 WSW 0,0
26.10.2020 14:00:00 12,0 7,2 28 15 46 25 WSW 0,0
26.10.2020 13:00:00 11,7 7,5 26 14 - - WSW 0,0
26.10.2020 12:00:00 10,4 8,3 21 11 - - SW 0,4
26.10.2020 11:00:00 9,8 8,7 18 10 - - SW 0,8
26.10.2020 10:00:00 8,4 7,7 22 12 - - S 0,8
26.10.2020 09:00:00 7,7 6,9 21 11 - - S 0,4
26.10.2020 08:00:00 6,2 5,6 18 10 - - SE 0,2
26.10.2020 07:00:00 4,9 4,5 13 7 - - E 0,0
26.10.2020 06:00:00 4,3 4,0 13 7 - - SE 0,0
26.10.2020 05:00:00 4,8 4,2 18 10 - - SSE 0,0
26.10.2020 04:00:00 5,1 4,5 15 8 - - SE 0,0
26.10.2020 03:00:00 4,9 4,3 13 7 - - SSE 0,0
26.10.2020 02:00:00 6,2 4,7 21 11 - - S 0,0
26.10.2020 01:00:00 5,0 4,2 13 7 - - SSE 0,0
26.10.2020 00:00:00 6,4 4,8 16 9 - - SSE 0,0
25.10.2020 23:00:00 6,6 5,0 21 11 - - SSE 0,0
25.10.2020 22:00:00 6,4 4,7 13 7 - - SSE 0,0
25.10.2020 21:00:00 6,9 4,9 16 9 - - SSE 0,0
25.10.2020 20:00:00 7,2 5,0 18 10 - - S 0,0
25.10.2020 19:00:00 8,1 5,1 21 11 - - S 0,0
25.10.2020 18:00:00 8,9 5,3 21 11 - - S 0,0
25.10.2020 17:00:00 9,7 5,6 21 11 - - S 0,0
25.10.2020 16:00:00 11,0 5,8 16 9 - - S 0,0
25.10.2020 15:00:00 11,7 6,0 22 12 - - SSW 0,0
25.10.2020 14:00:00 12,1 5,2 28 15 48 26 SSW 0,0
25.10.2020 13:00:00 12,1 6,1 37 20 52 28 SSW 0,0
25.10.2020 12:00:00 12,1 6,5 29 16 - - SSW 0,0
25.10.2020 11:00:00 11,4 6,0 28 15 - - SSW 0,0
25.10.2020 10:00:00 10,2 6,6 16 9 - - S 0,0
25.10.2020 09:00:00 8,2 5,9 28 15 - - S 0,0
25.10.2020 08:00:00 7,5 5,7 26 14 - - S 0,0
25.10.2020 07:00:00 6,7 4,9 22 12 - - S 0,0
25.10.2020 06:00:00 6,7 4,8 26 14 - - S 0,0
25.10.2020 05:00:00 6,7 4,7 26 14 - - S 0,0
25.10.2020 04:00:00 5,8 5,0 21 11 - - SSE 0,0
25.10.2020 03:00:00 5,9 4,6 9 5 - - E 0,0
25.10.2020 02:00:00 7,4 5,4 22 12 - - S 0,0
25.10.2020 01:00:00 7,8 6,3 18 10 - - S 0,0
25.10.2020 00:00:00 - - - - - - - -
24.10.2020 23:00:00 8,2 7,3 13 7 - - S 0,0
24.10.2020 22:00:00 8,4 7,8 9 5 - - S 0,0
24.10.2020 21:00:00 8,5 8,3 5 3 - - SSW 0,0
24.10.2020 20:00:00 8,6 8,4 4 2 - - SW 0,4
24.10.2020 19:00:00 8,8 8,6 2 1 - - E 1,4
24.10.2020 18:00:00 9,1 8,5 5 3 - - WNW 0,8
24.10.2020 17:00:00 10,7 9,8 11 6 - - W 1,8
24.10.2020 16:00:00 12,0 11,5 15 8 - - SSE 1,2
24.10.2020 15:00:00 12,8 11,2 13 7 - - SSE 0,2
24.10.2020 14:00:00 13,1 10,8 18 10 - - S 0,0
24.10.2020 13:00:00 13,2 11,2 26 14 48 26 SSE 0,0
24.10.2020 12:00:00 12,6 10,8 34 18 50 27 S 0,0
24.10.2020 11:00:00 11,8 10,0 29 16 48 26 S 0,4
24.10.2020 10:00:00 11,2 8,6 28 15 48 26 S 0,0
24.10.2020 09:00:00 10,2 7,6 31 17 - - S 0,0
24.10.2020 08:00:00 8,7 6,4 31 17 50 27 S 0,0
24.10.2020 07:00:00 8,3 5,9 24 13 - - SSE 0,0
24.10.2020 06:00:00 7,6 5,6 29 16 - - SE 0,0
24.10.2020 05:00:00 6,8 5,4 24 13 - - SE 0,0
24.10.2020 04:00:00 7,4 5,1 26 14 - - S 0,0
24.10.2020 03:00:00 7,8 4,9 24 13 - - S 0,0
24.10.2020 02:00:00 7,0 4,5 16 9 - - SSE 0,0
24.10.2020 01:00:00 6,0 4,7 16 9 - - SSE 0,0
24.10.2020 00:00:00 5,6 4,1 11 6 - - SSE 0,0
23.10.2020 23:00:00 6,1 4,2 18 10 - - S 0,0
23.10.2020 22:00:00 6,2 4,4 15 8 - - S 0,0
23.10.2020 21:00:00 6,9 4,9 11 6 - - S 0,0
23.10.2020 20:00:00 6,6 4,6 5 3 - - S 0,0
23.10.2020 19:00:00 8,6 5,6 11 6 - - SSW 0,0
23.10.2020 18:00:00 8,8 5,2 15 8 - - SW 0,0
23.10.2020 17:00:00 9,4 5,7 15 8 - - SW 0,0
23.10.2020 16:00:00 10,0 5,6 16 9 - - WSW 0,0
23.10.2020 15:00:00 11,8 6,5 22 12 - - WSW 0,0
23.10.2020 14:00:00 11,4 8,3 15 8 - - S 0,0
23.10.2020 13:00:00 10,6 8,2 16 9 - - S 0,0
23.10.2020 12:00:00 9,5 7,5 16 9 - - S 0,0
23.10.2020 11:00:00 8,6 7,2 15 8 - - SSE 0,0
23.10.2020 10:00:00 8,4 6,4 15 8 - - S 0,0
23.10.2020 09:00:00 7,3 5,7 11 6 - - SSE 0,0
23.10.2020 08:00:00 7,1 5,0 13 7 - - S 0,0
23.10.2020 07:00:00 5,9 4,2 13 7 - - SE 0,0
23.10.2020 06:00:00 5,7 3,8 11 6 - - SE 0,0
23.10.2020 05:00:00 5,8 3,2 9 5 - - S 0,0
23.10.2020 04:00:00 4,5 2,5 8 4 - - SSE 0,0
23.10.2020 03:00:00 3,9 2,1 9 5 - - SSW 0,0
23.10.2020 02:00:00 4,5 2,4 15 8 - - S 0,0
23.10.2020 01:00:00 5,3 3,1 15 8 - - S 0,0
23.10.2020 00:00:00 5,3 3,8 11 6 - - S 0,0
22.10.2020 23:00:00 6,2 4,6 13 7 - - S 0,0
22.10.2020 22:00:00 6,6 4,0 11 6 - - S 0,0
22.10.2020 21:00:00 7,9 4,5 9 5 - - SSW 0,0
22.10.2020 20:00:00 8,6 4,6 11 6 - - S 0,0
22.10.2020 19:00:00 9,3 4,2 16 9 - - WSW 0,0
22.10.2020 18:00:00 9,3 5,6 15 8 - - W 0,0
22.10.2020 17:00:00 10,5 4,9 22 12 - - SW 0,0
22.10.2020 16:00:00 11,2 5,6 28 15 - - WSW 0,0
22.10.2020 15:00:00 11,4 6,9 22 12 - - WSW 0,0
22.10.2020 14:00:00 11,8 7,9 28 15 50 27 WSW 0,0
22.10.2020 13:00:00 12,3 8,4 21 11 - - WSW 0,0
22.10.2020 12:00:00 11,7 8,9 24 13 - - SW 0,0
22.10.2020 11:00:00 10,5 8,7 31 17 46 25 SW 0,0
22.10.2020 10:00:00 10,5 7,7 28 15 - - SW 0,0
22.10.2020 09:00:00 10,1 7,0 31 17 46 25 SW 0,0
22.10.2020 08:00:00 9,5 6,5 22 12 - - SW 0,0
22.10.2020 07:00:00 9,0 6,0 26 14 48 26 SW 0,0
22.10.2020 06:00:00 9,5 5,9 29 16 50 27 SW 0,0
22.10.2020 05:00:00 9,7 6,0 24 13 52 28 SW 0,0
22.10.2020 04:00:00 10,1 6,1 28 15 - - SW 0,0
22.10.2020 03:00:00 10,3 7,0 24 13 - - SW 0,0
22.10.2020 02:00:00 10,4 7,9 16 9 - - SW 0,0
22.10.2020 01:00:00 11,1 8,3 15 8 - - WSW 0,0
22.10.2020 00:00:00 11,7 9,9 13 7 - - WSW 0,0
21.10.2020 23:00:00 11,2 9,6 11 6 - - SSW 0,0
21.10.2020 22:00:00 11,2 9,6 15 8 - - SSW 0,0
21.10.2020 21:00:00 11,3 9,4 16 9 - - SSW 0,0
21.10.2020 20:00:00 12,2 9,8 16 9 - - SW 0,0
21.10.2020 19:00:00 12,3 10,3 15 8 - - SSW 0,0
21.10.2020 18:00:00 12,2 9,9 11 6 - - SW 0,0
21.10.2020 17:00:00 12,6 10,4 13 7 - - WSW 0,0

tt = Température de l'air
td = dewpoint
ff = Vitesse du vent
fx = gusts
dd = Direction du vent
rr = Quantités de précipitations

stations d'obs. à proximité